Prevelis — SYDL — position and weather

sailwx.info

Track history (hours):
 
Tides and Currents Weather Stations Pressure Air Temp Water Temp Dewpoint Dewpoint Depression Visibility Wind Speed Wind Dir Waves Ship Positions

Prevelis

Last reported at 2017-Jun-23 17:46 UTC. Time now 2017-Jun-24 17:30 UTC.
Position N 37°20' E 023°57'.

Length 143 m; draft 5.5 m.

Type: Passenger vessel. MMSI: 239297000.

Date/timePositionNaut miles runAvg speedWind from/ knotsBaromVisibWave heightAir tempDewpointWater temp
2017-Jun-23 17:46N 37°20' E 023°57'416.6
2017-Jun-23 17:30N 37°24' E 023°55'816.2
2017-Jun-23 17:01N 37°31' E 023°49'816.3
2017-Jun-23 16:30N 37°38' E 023°44'816.3
2017-Jun-23 16:00N 37°45' E 023°39'815.5
2017-Jun-23 15:30N 37°52' E 023°36'5 9.2
2017-Jun-23 15:00N 37°57' E 023°38'0 0.0
2017-Jun-23 14:00N 37°57' E 023°38'0 0.0
2017-Jun-23 13:30N 37°57' E 023°38'0 0.0
2017-Jun-23 13:00N 37°57' E 023°38'0 0.0
2017-Jun-23 12:30N 37°57' E 023°38'0 0.0
2017-Jun-23 12:00N 37°57' E 023°38'0 0.0
2017-Jun-23 11:30N 37°57' E 023°38'0 0.0
2017-Jun-23 11:00N 37°57' E 023°38'0 0.0
2017-Jun-23 10:30N 37°57' E 023°38'0 0.0
2017-Jun-23 10:00N 37°57' E 023°38'0 0.0
2017-Jun-23 09:30N 37°57' E 023°38'0 0.0
2017-Jun-23 09:00N 37°57' E 023°38'0 0.0
2017-Jun-23 08:30N 37°57' E 023°38'0 0.0
2017-Jun-23 08:00N 37°57' E 023°38'0 0.0
2017-Jun-23 07:30N 37°57' E 023°38'0 0.0
2017-Jun-23 07:00N 37°57' E 023°38'0 0.0
2017-Jun-23 06:30N 37°57' E 023°38'0 0.0
2017-Jun-23 06:00N 37°57' E 023°38'0 0.0
2017-Jun-23 05:30N 37°57' E 023°38'1 1.7
2017-Jun-23 05:00N 37°56' E 023°37'815.3
2017-Jun-23 04:30N 37°49' E 023°41'917.1
2017-Jun-23 04:00N 37°41' E 023°45'816.8
2017-Jun-23 03:30N 37°35' E 023°52'  
2017-Jun-19 16:36N 37°36' E 023°47'217.0
2017-Jun-19 16:30N 37°37' E 023°46'817.0
2017-Jun-19 16:00N 37°44' E 023°40'816.4
2017-Jun-19 15:30N 37°52' E 023°37'5 7.9
2017-Jun-19 14:52N 37°57' E 023°38'0 0.0
2017-Jun-19 14:30N 37°57' E 023°38'0 0.0
2017-Jun-19 13:30N 37°57' E 023°38'0 0.0
2017-Jun-19 13:00N 37°57' E 023°38'0 0.0
2017-Jun-19 12:31N 37°57' E 023°38'0 0.0
2017-Jun-19 12:00N 37°57' E 023°38'0 0.0
2017-Jun-19 11:30N 37°57' E 023°38'0 0.0
2017-Jun-19 11:00N 37°57' E 023°38'0 0.0
2017-Jun-19 10:30N 37°57' E 023°38'0 0.0
2017-Jun-19 10:00N 37°57' E 023°38'0 0.0
2017-Jun-19 09:30N 37°57' E 023°38'2 3.9
2017-Jun-19 09:01N 37°55' E 023°37'816.2
2017-Jun-19 08:30N 37°48' E 023°41'917.2
2017-Jun-19 08:00N 37°40' E 023°46'  
2017-Jun-16 16:51N 37°35' E 023°46'616.7
2017-Jun-16 16:31N 37°40' E 023°43'816.8
2017-Jun-16 16:01N 37°48' E 023°38'815.6
2017-Jun-16 15:30N 37°55' E 023°37'2 3.8
2017-Jun-16 15:00N 37°57' E 023°38'0 0.0
2017-Jun-16 14:30N 37°57' E 023°38'0 0.0
2017-Jun-16 13:29N 37°57' E 023°38'0 0.0
2017-Jun-16 13:00N 37°57' E 023°38'0 0.0
2017-Jun-16 12:30N 37°57' E 023°38'0 0.0
2017-Jun-16 12:00N 37°57' E 023°38'0 0.0
2017-Jun-16 11:30N 37°57' E 023°38'0 0.0
2017-Jun-16 11:00N 37°57' E 023°38'0 0.0
2017-Jun-16 10:30N 37°57' E 023°38'0 0.0
2017-Jun-16 10:00N 37°57' E 023°38'0 0.0
2017-Jun-16 09:30N 37°57' E 023°38'0 0.0
2017-Jun-16 09:00N 37°57' E 023°38'0 0.0
2017-Jun-16 08:30N 37°57' E 023°38'0 0.0
2017-Jun-16 08:00N 37°57' E 023°38'0 0.0
2017-Jun-16 07:30N 37°57' E 023°38'0 0.0
2017-Jun-16 07:00N 37°57' E 023°38'0 0.0
2017-Jun-16 06:30N 37°57' E 023°38'0 0.0
2017-Jun-16 06:00N 37°57' E 023°38'0 0.0
2017-Jun-16 05:30N 37°57' E 023°38'0 0.6
2017-Jun-16 05:00N 37°57' E 023°38'4 8.2
2017-Jun-16 04:30N 37°52' E 023°39'917.7
2017-Jun-16 04:00N 37°45' E 023°44'  
Track history (hours):
 
Tides and Currents Weather Stations Pressure Air Temp Water Temp Dewpoint Dewpoint Depression Visibility Wind Speed Wind Dir Waves Ship Positions

Prevelis

Last reported at 2017-Jun-23 17:46 UTC. Time now 2017-Jun-24 17:30 UTC.
Position N 37°20' E 023°57'.

Length 143 m; draft 5.5 m.

Type: Passenger vessel. MMSI: 239297000.

Date/timePositionNaut miles runAvg speedWind from/ knotsBaromVisibWave heightAir tempDewpointWater temp
2017-Jun-23 17:46N 37°20' E 023°57'416.6
2017-Jun-23 17:30N 37°24' E 023°55'816.2
2017-Jun-23 17:01N 37°31' E 023°49'816.3
2017-Jun-23 16:30N 37°38' E 023°44'816.3
2017-Jun-23 16:00N 37°45' E 023°39'815.5
2017-Jun-23 15:30N 37°52' E 023°36'5 9.2
2017-Jun-23 15:00N 37°57' E 023°38'0 0.0
2017-Jun-23 14:00N 37°57' E 023°38'0 0.0
2017-Jun-23 13:30N 37°57' E 023°38'0 0.0
2017-Jun-23 13:00N 37°57' E 023°38'0 0.0
2017-Jun-23 12:30N 37°57' E 023°38'0 0.0
2017-Jun-23 12:00N 37°57' E 023°38'0 0.0
2017-Jun-23 11:30N 37°57' E 023°38'0 0.0
2017-Jun-23 11:00N 37°57' E 023°38'0 0.0
2017-Jun-23 10:30N 37°57' E 023°38'0 0.0
2017-Jun-23 10:00N 37°57' E 023°38'0 0.0
2017-Jun-23 09:30N 37°57' E 023°38'0 0.0
2017-Jun-23 09:00N 37°57' E 023°38'0 0.0
2017-Jun-23 08:30N 37°57' E 023°38'0 0.0
2017-Jun-23 08:00N 37°57' E 023°38'0 0.0
2017-Jun-23 07:30N 37°57' E 023°38'0 0.0
2017-Jun-23 07:00N 37°57' E 023°38'0 0.0
2017-Jun-23 06:30N 37°57' E 023°38'0 0.0
2017-Jun-23 06:00N 37°57' E 023°38'0 0.0
2017-Jun-23 05:30N 37°57' E 023°38'1 1.7
2017-Jun-23 05:00N 37°56' E 023°37'815.3
2017-Jun-23 04:30N 37°49' E 023°41'917.1
2017-Jun-23 04:00N 37°41' E 023°45'816.8
2017-Jun-23 03:30N 37°35' E 023°52'  
2017-Jun-19 16:36N 37°36' E 023°47'217.0
2017-Jun-19 16:30N 37°37' E 023°46'817.0
2017-Jun-19 16:00N 37°44' E 023°40'816.4
2017-Jun-19 15:30N 37°52' E 023°37'5 7.9
2017-Jun-19 14:52N 37°57' E 023°38'0 0.0
2017-Jun-19 14:30N 37°57' E 023°38'0 0.0
2017-Jun-19 13:30N 37°57' E 023°38'0 0.0
2017-Jun-19 13:00N 37°57' E 023°38'0 0.0
2017-Jun-19 12:31N 37°57' E 023°38'0 0.0
2017-Jun-19 12:00N 37°57' E 023°38'0 0.0
2017-Jun-19 11:30N 37°57' E 023°38'0 0.0
2017-Jun-19 11:00N 37°57' E 023°38'0 0.0
2017-Jun-19 10:30N 37°57' E 023°38'0 0.0
2017-Jun-19 10:00N 37°57' E 023°38'0 0.0
2017-Jun-19 09:30N 37°57' E 023°38'2 3.9
2017-Jun-19 09:01N 37°55' E 023°37'816.2
2017-Jun-19 08:30N 37°48' E 023°41'917.2
2017-Jun-19 08:00N 37°40' E 023°46'  
2017-Jun-16 16:51N 37°35' E 023°46'616.7
2017-Jun-16 16:31N 37°40' E 023°43'816.8
2017-Jun-16 16:01N 37°48' E 023°38'815.6
2017-Jun-16 15:30N 37°55' E 023°37'2 3.8
2017-Jun-16 15:00N 37°57' E 023°38'0 0.0
2017-Jun-16 14:30N 37°57' E 023°38'0 0.0
2017-Jun-16 13:29N 37°57' E 023°38'0 0.0
2017-Jun-16 13:00N 37°57' E 023°38'0 0.0
2017-Jun-16 12:30N 37°57' E 023°38'0 0.0
2017-Jun-16 12:00N 37°57' E 023°38'0 0.0
2017-Jun-16 11:30N 37°57' E 023°38'0 0.0
2017-Jun-16 11:00N 37°57' E 023°38'0 0.0
2017-Jun-16 10:30N 37°57' E 023°38'0 0.0
2017-Jun-16 10:00N 37°57' E 023°38'0 0.0
2017-Jun-16 09:30N 37°57' E 023°38'0 0.0
2017-Jun-16 09:00N 37°57' E 023°38'0 0.0
2017-Jun-16 08:30N 37°57' E 023°38'0 0.0
2017-Jun-16 08:00N 37°57' E 023°38'0 0.0
2017-Jun-16 07:30N 37°57' E 023°38'0 0.0
2017-Jun-16 07:00N 37°57' E 023°38'0 0.0
2017-Jun-16 06:30N 37°57' E 023°38'0 0.0
2017-Jun-16 06:00N 37°57' E 023°38'0 0.0
2017-Jun-16 05:30N 37°57' E 023°38'0 0.6
2017-Jun-16 05:00N 37°57' E 023°38'4 8.2
2017-Jun-16 04:30N 37°52' E 023°39'917.7
2017-Jun-16 04:00N 37°45' E 023°44'  

Dump ship's entire track history